.
WxDataArchive / Data Records for 2010-01-30
2010-01-29 January 2010 2010-01-31

Data Records for Saturday, 30 January 2010

Time	Temp	Chill	HIndex	Humid	Dewpt	 Wind 	HiWind	WindDir	Rain 	Barom 
-----	----	-----	------	-----	-----	------	------	-------	-----	----- 
00:00	11.1	11.1	11.1	72	3.9	0	1	90	0.00	30.390 
00:05	11.1	11.1	11.1	72	3.9	0	1	90	0.00	30.390 
00:10	11.1	11.1	11.1	73	4.2	0	1	90	0.00	30.390 
00:15	10.9	10.9	10.9	73	4.0	0	1	90	0.00	30.390 
00:20	10.9	10.9	10.9	73	4.0	0	1	90	0.00	30.390 
00:25	10.9	10.9	10.9	73	4.0	0	2	90	0.00	30.390 
00:30	10.9	10.9	10.9	73	4.0	0	1	90	0.00	30.382 
00:35	10.9	10.9	10.9	73	4.0	0	2	90	0.00	30.382 
00:40	10.9	10.9	10.9	73	4.0	0	2	90	0.00	30.382 
00:45	10.9	10.9	10.9	73	4.0	0	1	90	0.00	30.385 
00:50	10.9	10.9	10.9	73	4.0	0	2	90	0.00	30.385 
00:55	10.9	10.9	10.9	73	4.0	0	2	90	0.00	30.385 
01:00	10.9	10.9	10.9	73	4.0	0	2	90	0.00	30.388 
01:05	10.9	10.9	10.9	73	4.0	0	2	90	0.00	30.388 
01:10	10.9	10.9	10.9	73	4.0	0	2	90	0.00	30.388 
01:15	10.9	10.9	10.9	73	4.0	0	2	90	0.00	30.385 
01:20	10.9	10.9	10.9	73	4.0	0	1	90	0.00	30.385 
01:25	10.9	10.9	10.9	73	4.0	0	1	90	0.00	30.385 
01:30	10.7	10.7	10.7	73	3.8	0	1	90	0.00	30.379 
01:35	10.7	10.7	10.7	73	3.8	0	1	90	0.00	30.379 
01:40	10.7	10.7	10.7	73	3.8	0	2	90	0.00	30.379 
01:45	10.7	10.7	10.7	73	3.8	0	1	90	0.00	30.369 
01:50	10.7	10.7	10.7	73	3.8	0	1	90	0.00	30.369 
01:55	10.7	10.7	10.7	73	3.8	1	2	90	0.00	30.369 
02:00	10.7	10.7	10.7	73	3.8	0	3	90	0.00	30.361 
02:05	10.9	10.9	10.9	72	3.7	1	3	90	0.00	30.361 
02:10	11.1	11.1	11.1	72	3.9	1	4	112	0.00	30.361 
02:15	11.1	11.1	11.1	71	3.6	1	4	112	0.00	30.354 
02:20	11.2	11.2	11.2	71	3.7	1	5	90	0.00	30.354 
02:25	11.2	11.2	11.2	71	3.7	1	5	68	0.00	30.354 
02:30	11.2	11.2	11.2	70	3.4	1	3	68	0.00	30.345 
02:35	11.2	11.2	11.2	70	3.4	2	8	112	0.00	30.345 
02:40	11.4	11.4	11.4	69	3.2	1	6	45	0.00	30.345 
02:45	11.4	11.4	11.4	69	3.2	1	9	90	0.00	30.340 
02:50	11.4	11.4	11.4	68	2.9	2	7	112	0.00	30.340 
02:55	11.6	11.6	11.6	68	3.1	2	8	112	0.00	30.340 
03:00	11.6	11.6	11.6	68	3.1	2	7	112	0.00	30.334 
03:05	11.6	11.6	11.6	68	3.1	2	5	112	0.00	30.334 
03:10	11.6	11.6	11.6	68	3.1	2	6	112	0.00	30.334 
03:15	11.4	11.4	11.4	68	2.9	1	9	90	0.00	30.330 
03:20	11.4	11.4	11.4	68	2.9	2	8	90	0.00	30.330 
03:25	11.4	11.4	11.4	68	2.9	1	4	90	0.00	30.330 
03:30	11.4	11.4	11.4	68	2.9	2	7	90	0.00	30.325 
03:35	11.6	11.6	11.6	68	3.1	1	4	112	0.00	30.325 
03:40	11.6	11.6	11.6	68	3.1	1	3	90	0.00	30.325 
03:45	11.6	11.6	11.6	67	2.8	2	8	90	0.00	30.321 
03:50	11.7	11.7	11.7	67	2.9	2	6	112	0.00	30.321 
03:55	11.7	11.7	11.7	67	2.9	2	6	112	0.00	30.321 
04:00	11.7	11.7	11.7	67	2.9	2	9	90	0.00	30.312 
04:05	11.7	11.7	11.7	67	2.9	2	6	90	0.00	30.312 
04:10	11.7	11.7	11.7	67	2.9	3	6	112	0.00	30.312 
04:15	11.7	11.7	11.7	67	2.9	2	7	112	0.00	30.320 
04:20	11.7	11.7	11.7	67	2.9	3	7	90	0.00	30.320 
04:25	11.7	11.7	11.7	67	2.9	1	7	112	0.00	30.320 
04:30	11.7	11.7	11.7	67	2.9	2	9	90	0.00	30.320 
04:35	11.7	11.7	11.7	67	2.9	1	5	68	0.00	30.320 
04:40	11.9	11.9	11.9	67	3.1	1	6	90	0.00	30.320 
04:45	11.9	11.9	11.9	67	3.1	1	6	90	0.00	30.317 
04:50	11.9	11.9	11.9	67	3.1	2	5	90	0.00	30.317 
04:55	11.9	11.9	11.9	66	2.8	2	6	112	0.00	30.317 
05:00	11.9	11.9	11.9	66	2.8	1	3	112	0.00	30.313 
05:05	12.1	12.1	12.1	67	3.3	1	7	45	0.00	30.313 
05:10	12.1	12.1	12.1	66	3.0	1	5	112	0.00	30.313 
05:15	12.1	12.1	12.1	66	3.0	1	5	90	0.00	30.313 
05:20	12.1	12.1	12.1	67	3.3	1	4	90	0.00	30.313 
05:25	12.1	12.1	12.1	67	3.3	0	2	90	0.00	30.313 
05:30	12.1	12.1	12.1	67	3.3	1	4	90	0.00	30.313 
05:35	12.1	12.1	12.1	66	3.0	2	5	90	0.00	30.313 
05:40	12.1	12.1	12.1	67	3.3	1	4	90	0.00	30.313 
05:45	12.1	12.1	12.1	67	3.3	2	7	112	0.00	30.310 
05:50	12.1	12.1	12.1	67	3.3	2	6	112	0.00	30.310 
05:55	12.1	12.1	12.1	67	3.3	1	4	45	0.00	30.310 
06:00	12.1	12.1	12.1	67	3.3	2	6	90	0.00	30.303 
06:05	12.1	12.1	12.1	67	3.3	3	7	112	0.00	30.303 
06:10	12.1	12.1	12.1	67	3.3	2	5	112	0.00	30.303 
06:15	11.9	11.9	11.9	68	3.4	1	4	90	0.00	30.300 
06:20	11.9	11.9	11.9	68	3.4	2	6	112	0.00	30.300 
06:25	11.9	11.9	11.9	68	3.4	1	5	112	0.00	30.300 
06:30	11.9	11.9	11.9	68	3.4	2	6	112	0.00	30.296 
06:35	11.9	11.9	11.9	68	3.4	1	4	90	0.00	30.296 
06:40	11.9	11.9	11.9	68	3.4	1	4	90	0.00	30.296 
06:45	11.7	11.7	11.7	69	3.5	1	3	45	0.00	30.294 
06:50	11.7	11.7	11.7	69	3.5	1	3	22	0.00	30.294 
06:55	11.6	11.6	11.6	69	3.4	0	4	112	0.00	30.294 
07:00	11.6	11.6	11.6	69	3.4	1	4	22	0.00	30.289 
07:05	11.4	11.4	11.4	69	3.2	0	4	112	0.00	30.289 
07:10	11.4	11.4	11.4	69	3.2	1	4	112	0.00	30.289 
07:15	11.4	11.4	11.4	70	3.5	1	2	135	0.00	30.291 
07:20	11.4	11.4	11.4	69	3.2	1	4	112	0.00	30.291 
07:25	11.2	11.2	11.2	69	3.0	0	1	112	0.00	30.291 
07:30	11.2	11.2	11.2	69	3.0	1	4	45	0.00	30.296 
07:35	11.2	11.2	11.2	69	3.0	0	2	45	0.00	30.296 
07:40	11.1	11.1	11.1	69	3.0	0	2	45	0.00	30.296 
07:45	11.1	11.1	11.1	69	3.0	0	2	90	0.00	30.300 
07:50	11.1	11.1	11.1	69	3.0	1	5	22	0.00	30.300 
07:55	11.1	11.1	11.1	69	3.0	1	3	112	0.00	30.300 
08:00	11.1	11.1	11.1	68	2.6	1	3	135	0.00	30.300 
08:05	11.1	11.1	11.1	68	2.6	1	4	0	0.00	30.300 
08:10	11.1	11.1	11.1	68	2.6	1	3	68	0.00	30.300 
08:15	11.1	11.1	11.1	68	2.6	0	2	0	0.00	30.300 
08:20	10.9	10.9	10.9	69	2.8	0	2	45	0.00	30.300 
08:25	10.9	10.9	10.9	68	2.4	1	3	45	0.00	30.300 
08:30	10.9	10.9	10.9	68	2.4	1	3	22	0.00	30.300 
08:35	11.1	11.1	11.1	68	2.6	1	3	112	0.00	30.300 
08:40	11.1	11.1	11.1	69	3.0	1	4	112	0.00	30.300 
08:45	11.2	11.2	11.2	69	3.0	1	4	22	0.00	30.296 
08:50	11.2	11.2	11.2	69	3.0	0	2	0	0.00	30.296 
08:55	11.4	11.4	11.4	69	3.2	0	2	90	0.00	30.296 
09:00	11.6	11.6	11.6	69	3.4	0	3	22	0.00	30.298 
09:05	11.9	11.9	11.9	69	3.7	1	3	45	0.00	30.298 
09:10	12.1	12.1	12.1	70	4.2	1	3	68	0.00	30.298 
09:15	12.3	12.3	12.3	70	4.4	1	3	68	0.00	30.299 
09:20	12.4	12.4	12.4	70	4.5	1	3	45	0.00	30.299 
09:25	12.6	12.6	12.6	70	4.7	1	5	45	0.00	30.299 
09:30	12.8	12.8	12.8	69	4.6	1	4	112	0.00	30.299 
09:35	12.9	12.9	12.9	69	4.7	1	3	45	0.00	30.299 
09:40	13.3	13.3	13.3	69	5.1	1	3	135	0.00	30.299 
09:45	13.8	13.8	13.8	69	5.5	1	5	90	0.00	30.297 
09:50	14.1	14.1	14.1	69	5.8	1	3	112	0.00	30.297 
09:55	14.3	14.3	14.3	68	5.7	1	5	112	0.00	30.297 
10:00	14.8	14.8	14.8	68	6.2	1	5	22	0.00	30.296 
10:05	15.2	15.2	15.2	68	6.6	2	5	22	0.00	30.296 
10:10	15.6	15.6	15.6	68	7.0	2	5	45	0.00	30.296 
10:15	15.9	15.9	15.9	67	6.9	2	5	112	0.00	30.293 
10:20	15.9	15.9	15.9	67	6.9	3	10	112	0.00	30.293 
10:25	15.9	15.9	15.9	67	6.9	3	12	90	0.00	30.293 
10:30	15.7	7.9	15.7	67	6.7	5	11	90	0.00	30.288 
10:35	15.6	9.1	15.6	68	7.0	4	13	112	0.00	30.288 
10:40	15.7	9.2	15.7	68	7.0	4	12	112	0.00	30.288 
10:45	15.7	15.7	15.7	68	7.0	3	10	90	0.00	30.291 
10:50	15.9	9.5	15.9	68	7.2	4	11	112	0.00	30.291 
10:55	15.9	15.9	15.9	68	7.2	2	7	90	0.00	30.291 
11:00	16.1	8.4	16.1	68	7.4	5	13	112	0.00	30.295 
11:05	16.2	16.2	16.2	68	7.5	3	10	112	0.00	30.295 
11:10	16.5	16.5	16.5	68	7.8	3	13	90	0.00	30.295 
11:15	16.9	9.3	16.9	67	7.9	5	14	112	0.00	30.295 
11:20	16.9	9.3	16.9	67	7.9	5	13	90	0.00	30.295 
11:25	16.7	9.1	16.7	67	7.7	5	13	90	0.00	30.295 
11:30	16.9	10.6	16.9	68	8.2	4	12	112	0.00	30.294 
11:35	17.2	17.2	17.2	68	8.5	3	10	112	0.00	30.294 
11:40	17.7	17.7	17.7	68	9.0	3	10	112	0.00	30.294 
11:45	17.7	11.6	17.7	66	8.3	4	12	90	0.00	30.289 
11:50	17.7	11.6	17.7	67	8.6	4	11	90	0.00	30.289 
11:55	18.1	18.1	18.1	67	9.0	3	12	112	0.00	30.289 
12:00	18.1	12.0	18.1	66	8.7	4	13	90	0.00	30.280 
12:05	18.0	10.6	18.0	66	8.6	5	12	112	0.00	30.280 
12:10	18.0	10.6	18.0	66	8.6	5	14	112	0.00	30.280 
12:15	18.1	10.7	18.1	66	8.7	5	11	112	0.00	30.277 
12:20	18.4	18.4	18.4	67	9.3	3	10	90	0.00	30.277 
12:25	18.8	18.8	18.8	66	9.4	2	7	112	0.00	30.277 
12:30	18.9	18.9	18.9	66	9.4	2	6	112	0.00	30.270 
12:35	18.8	11.6	18.8	66	9.4	5	13	90	0.00	30.270 
12:40	18.6	10.3	18.6	66	9.2	6	13	90	0.00	30.270 
12:45	18.8	18.8	18.8	66	9.4	3	8	90	0.00	30.260 
12:50	19.2	19.2	19.2	67	10.1	2	8	90	0.00	30.260 
12:55	19.2	19.2	19.2	66	9.7	3	9	112	0.00	30.260 
13:00	19.1	13.2	19.1	66	9.6	4	12	112	0.00	30.248 
13:05	18.9	18.9	18.9	67	9.8	3	11	112	0.00	30.248 
13:10	19.1	19.1	19.1	67	10.0	3	10	90	0.00	30.248 
13:15	19.2	19.2	19.2	65	9.4	3	10	112	0.00	30.246 
13:20	18.9	18.9	18.9	65	9.1	3	7	112	0.00	30.246 
13:25	19.1	19.1	19.1	66	9.6	2	12	112	0.00	30.246 
13:30	19.2	19.2	19.2	66	9.7	2	7	112	0.00	30.241 
13:35	19.4	19.4	19.4	65	9.6	3	9	112	0.00	30.241 
13:40	19.2	19.2	19.2	66	9.7	2	7	90	0.00	30.241 
13:45	19.2	19.2	19.2	66	9.7	3	7	112	0.00	30.239 
13:50	19.2	19.2	19.2	65	9.4	1	6	90	0.00	30.239 
13:55	19.1	19.1	19.1	65	9.3	3	7	90	0.00	30.239 
14:00	19.1	19.1	19.1	66	9.6	1	5	112	0.00	30.233 
14:05	19.1	19.1	19.1	66	9.6	2	7	112	0.00	30.233 
14:10	19.2	19.2	19.2	66	9.7	1	5	90	0.00	30.233 
14:15	19.2	19.2	19.2	65	9.4	2	5	112	0.00	30.231 
14:20	19.2	19.2	19.2	65	9.4	2	7	112	0.00	30.231 
14:25	19.2	19.2	19.2	65	9.4	2	7	90	0.00	30.231 
14:30	19.2	19.2	19.2	66	9.7	2	8	90	0.00	30.231 
14:35	19.2	19.2	19.2	66	9.7	2	5	112	0.00	30.231 
14:40	19.4	19.4	19.4	65	9.6	2	6	90	0.00	30.231 
14:45	19.7	19.7	19.7	66	10.2	2	6	112	0.00	30.230 
14:50	19.9	19.9	19.9	65	10.1	3	9	112	0.00	30.230 
14:55	20.0	20.0	20.0	65	10.2	2	7	112	0.00	30.230 
15:00	20.2	20.2	20.2	64	10.0	3	6	112	0.00	30.231 
15:05	20.5	20.5	20.5	65	10.6	2	6	22	0.00	30.231 
15:10	20.0	14.2	20.0	64	9.8	4	9	90	0.00	30.231 
15:15	20.0	20.0	20.0	65	10.2	3	8	112	0.00	30.232 
15:20	19.7	13.9	19.7	66	10.2	4	8	112	0.00	30.232 
15:25	19.7	19.7	19.7	66	10.2	3	11	90	0.00	30.232 
15:30	19.7	19.7	19.7	66	10.2	2	6	90	0.00	30.229 
15:35	19.7	19.7	19.7	66	10.2	2	7	90	0.00	30.229 
15:40	19.7	19.7	19.7	66	10.2	2	6	90	0.00	30.229 
15:45	19.7	19.7	19.7	67	10.5	1	5	112	0.00	30.230 
15:50	19.9	19.9	19.9	66	10.4	2	9	112	0.00	30.230 
15:55	19.5	19.5	19.5	66	10.0	2	6	90	0.00	30.230 
16:00	19.5	19.5	19.5	66	10.0	1	4	90	0.00	30.228 
16:05	19.5	19.5	19.5	65	9.7	1	4	112	0.00	30.228 
16:10	19.7	19.7	19.7	66	10.2	1	5	112	0.00	30.228 
16:15	19.9	19.9	19.9	65	10.1	0	4	112	0.00	30.228 
16:20	20.0	20.0	20.0	66	10.5	0	2	112	0.00	30.228 
16:25	20.2	20.2	20.2	66	10.7	0	2	45	0.00	30.228 
16:30	20.3	20.3	20.3	65	10.4	1	5	45	0.00	30.229 
16:35	20.2	20.2	20.2	66	10.7	0	4	112	0.00	30.229 
16:40	20.2	20.2	20.2	65	10.3	0	1	112	0.00	30.229 
16:45	20.0	20.0	20.0	65	10.2	0	2	112	0.00	30.228 
16:50	20.0	20.0	20.0	65	10.2	0	2	112	0.00	30.228 
16:55	19.7	19.7	19.7	64	9.5	1	4	90	0.00	30.228 
17:00	19.4	19.4	19.4	65	9.6	0	2	90	0.00	30.236 
17:05	19.2	19.2	19.2	65	9.4	0	3	90	0.00	30.236 
17:10	19.2	19.2	19.2	65	9.4	0	2	90	0.00	30.236 
17:15	19.4	19.4	19.4	65	9.6	0	2	90	0.00	30.232 
17:20	19.5	19.5	19.5	65	9.7	0	2	90	0.00	30.232 
17:25	19.5	19.5	19.5	65	9.7	1	2	90	0.00	30.232 
17:30	19.7	19.7	19.7	65	9.9	0	2	90	0.00	30.227 
17:35	19.7	19.7	19.7	66	10.2	1	4	90	0.00	30.227 
17:40	19.5	19.5	19.5	66	10.0	1	4	112	0.00	30.227 
17:45	19.4	19.4	19.4	66	9.9	1	4	112	0.00	30.230 
17:50	19.1	19.1	19.1	66	9.6	1	4	90	0.00	30.230 
17:55	18.9	18.9	18.9	66	9.4	1	2	90	0.00	30.230 
18:00	18.6	18.6	18.6	67	9.5	1	3	90	0.00	30.232 
18:05	18.3	18.3	18.3	67	9.2	1	4	90	0.00	30.232 
18:10	18.0	18.0	18.0	68	9.2	1	3	90	0.00	30.232 
18:15	17.8	17.8	17.8	68	9.1	0	2	90	0.00	30.235 
18:20	17.7	17.7	17.7	68	9.0	0	2	90	0.00	30.235 
18:25	17.3	17.3	17.3	69	8.9	0	1	90	0.00	30.235 
18:30	17.2	17.2	17.2	69	8.8	0	1	90	0.00	30.244 
18:35	17.0	17.0	17.0	69	8.6	0	2	90	0.00	30.244 
18:40	16.7	16.7	16.7	69	8.3	0	0	---	0.00	30.244 
18:45	16.4	16.4	16.4	69	8.0	0	0	---	0.00	30.247 
18:50	16.1	16.1	16.1	69	7.8	0	0	---	0.00	30.247 
18:55	15.7	15.7	15.7	70	7.7	0	0	---	0.00	30.247 
19:00	15.6	15.6	15.6	71	7.9	0	1	90	0.00	30.248 
19:05	15.4	15.4	15.4	72	8.0	0	1	90	0.00	30.248 
19:10	15.2	15.2	15.2	72	7.8	0	1	90	0.00	30.248 
19:15	15.2	15.2	15.2	73	8.1	0	1	90	0.00	30.247 
19:20	15.2	15.2	15.2	73	8.1	0	1	90	0.00	30.247 
19:25	15.1	15.1	15.1	73	8.0	0	1	90	0.00	30.247 
19:30	15.1	15.1	15.1	73	8.0	0	1	90	0.00	30.248 
19:35	14.9	14.9	14.9	73	7.8	0	1	90	0.00	30.248 
19:40	14.8	14.8	14.8	73	7.7	0	1	90	0.00	30.248 
19:45	14.6	14.6	14.6	73	7.5	0	0	---	0.00	30.249 
19:50	14.3	14.3	14.3	73	7.3	0	0	---	0.00	30.249 
19:55	14.0	14.0	14.0	73	7.0	0	0	---	0.00	30.249 
20:00	13.6	13.6	13.6	74	6.9	0	0	---	0.00	30.252 
20:05	13.3	13.3	13.3	75	6.9	0	0	---	0.00	30.252 
20:10	13.1	13.1	13.1	75	6.7	0	0	---	0.00	30.252 
20:15	12.8	12.8	12.8	75	6.4	0	0	---	0.00	30.253 
20:20	12.6	12.6	12.6	75	6.2	0	0	---	0.00	30.253 
20:25	12.4	12.4	12.4	76	6.3	0	0	---	0.00	30.253 
20:30	12.4	12.4	12.4	77	6.6	0	0	---	0.00	30.254 
20:35	12.4	12.4	12.4	77	6.6	0	0	---	0.00	30.254 
20:40	12.4	12.4	12.4	78	6.9	0	0	---	0.00	30.254 
20:45	12.4	12.4	12.4	78	6.9	0	0	---	0.00	30.253 
20:50	12.4	12.4	12.4	78	6.9	0	0	---	0.00	30.253 
20:55	12.4	12.4	12.4	79	7.2	0	0	---	0.00	30.253 
21:00	12.3	12.3	12.3	79	7.1	0	0	---	0.00	30.257 
21:05	12.3	12.3	12.3	79	7.1	0	0	---	0.00	30.257 
21:10	12.3	12.3	12.3	79	7.1	0	0	---	0.00	30.257 
21:15	12.3	12.3	12.3	80	7.3	0	0	---	0.00	30.258 
21:20	12.3	12.3	12.3	80	7.3	0	0	---	0.00	30.258 
21:25	12.3	12.3	12.3	80	7.3	0	0	---	0.00	30.258 
21:30	12.3	12.3	12.3	80	7.3	0	0	---	0.00	30.253 
21:35	12.3	12.3	12.3	80	7.3	0	0	---	0.00	30.253 
21:40	12.1	12.1	12.1	80	7.1	0	0	---	0.00	30.253 
21:45	12.1	12.1	12.1	81	7.4	0	0	---	0.00	30.252 
21:50	11.9	11.9	11.9	81	7.2	0	0	---	0.00	30.252 
21:55	11.9	11.9	11.9	81	7.2	0	0	---	0.00	30.252 
22:00	11.7	11.7	11.7	81	7.0	0	0	---	0.00	30.250 
22:05	11.6	11.6	11.6	82	7.2	0	0	---	0.00	30.250 
22:10	11.4	11.4	11.4	82	7.0	0	0	---	0.00	30.250 
22:15	11.4	11.4	11.4	82	7.0	0	0	---	0.00	30.250 
22:20	11.2	11.2	11.2	82	6.8	0	0	---	0.00	30.250 
22:25	11.2	11.2	11.2	82	6.8	0	0	---	0.00	30.250 
22:30	11.1	11.1	11.1	82	6.7	0	0	---	0.00	30.246 
22:35	11.1	11.1	11.1	82	6.7	0	0	---	0.00	30.246 
22:40	11.1	11.1	11.1	83	7.0	0	0	---	0.00	30.246 
22:45	11.1	11.1	11.1	83	7.0	0	0	---	0.00	30.241 
22:50	11.1	11.1	11.1	83	7.0	0	0	---	0.00	30.241 
22:55	11.2	11.2	11.2	83	7.1	0	0	---	0.00	30.241 
23:00	11.1	11.1	11.1	84	7.2	0	0	---	0.00	30.246 
23:05	11.1	11.1	11.1	84	7.2	0	0	---	0.00	30.246 
23:10	11.1	11.1	11.1	84	7.2	0	0	---	0.00	30.246 
23:15	11.1	11.1	11.1	84	7.2	0	0	---	0.00	30.245 
23:20	11.1	11.1	11.1	84	7.2	0	0	---	0.00	30.245 
23:25	10.9	10.9	10.9	84	7.0	0	0	---	0.00	30.245 
23:30	10.7	10.7	10.7	84	6.8	0	0	---	0.00	30.241 
23:35	10.5	10.5	10.5	84	6.6	0	0	---	0.00	30.241 
23:40	10.5	10.5	10.5	84	6.6	0	0	---	0.00	30.241 
23:45	10.4	10.4	10.4	84	6.5	0	0	---	0.00	30.247 
23:50	10.4	10.4	10.4	84	6.5	0	0	---	0.00	30.247 
23:55	10.2	10.2	10.2	84	6.3	0	0	---	0.00	30.247 

CoCoRaHS
IN-AL-39
A2 Web Hosting
Creative Commons License
GoDaddy
search engine by freefind advanced

loaded 2018-11-19 10:16:09 • last modified 2010-11-18 10:43:29
Privacy PolicyDisclaimer
• wx.awcolley.com is powered by PmWiki v.2002016 •
• all content (unless otherwise noted) © 2018 A W Colley